Ana Sayfa
METAR-TAF:

METAR-TAF

Havaalanları :

Wink, Teksas, Amerika Birleşik Devletleri

Enlem: 31-46-47N, Boylam: 103-12-05W, yükseklik: 860 m

Güncel hava durumu gözlemi

Rapor saat 10:53 UTC de 1 saat ve 11 dakika önce yapıldı.
Rüzgar doğudan 6 kt
Sıcaklık 22°C
Nem 78%
Basınç 1021 hPa
Görüş mesafesi: 16.1 km
Açık gökyüzü

METAR: KINK 271053Z AUTO 10006KT 10SM CLR 22/18 A3014 RMK AO2 SLP157 T02220183

Saat: 07:04 (12:04 UTC)

Tahmin

Rapor saat 11:21 UTC de 43 dakika önce yapıldı.
Ayın 27'si saat 12 UTC'den ayın 28'si saat 12 UTC'ye kadar geçerli Tahmin
Rüzgar güneydoğudan 11 kt
Görüş mesafesi: 10 km
25000 ft yükseklikte parçalı çok bulutlu
Ayın 27'si saat 1500 UTC'den
Rüzgar güney/güneydoğudan 14 kt ve 24 kt'a kadar ani rüzgarlar
Görüş mesafesi: 10 km
6000 ft yükseklikte az bulutlu

TAF: KINK 271121Z 2712/2812 14011KT P6SM BKN250 FM271500 15014G24KT P6SM FEW060

4.000'den fazla havaalanı için hava durumu gözlemleri ve tahminleri (METAR ve TAF raporları).

Kullanılabilir istasyonlar harita üzerinde sarı ve kırmızı noktalarla gösterilir.

İstasyonun adını görmek için fareyi noktanın üzerinde gezdirin.

Sonrasında hava gözlem ve tahminlerini görmek için tıklayın.

Haritayı değiştirmek için: yaklaştırmak için siyah artı işaretli yeşil düğmeye ve uzaklaştırmak için de eksi işaretli düğmeye hızla tıklayın; bitişik haritalar için yeşil okları kullanın.


METAR-TAF: